createdAt,value
2018-12-05T00:00:11.711Z,84.31
2018-12-05T00:01:10.632Z,84.21
2018-12-05T00:02:10.653Z,84.42
2018-12-05T00:03:10.616Z,84.63
2018-12-05T00:04:10.599Z,84.31
2018-12-05T00:05:10.587Z,84.21
2018-12-05T00:06:10.599Z,84.83
2018-12-05T00:07:10.573Z,84.73
2018-12-05T00:08:10.583Z,84.42
2018-12-05T00:09:10.547Z,84.73
2018-12-05T00:10:10.533Z,84.31
2018-12-05T00:11:10.523Z,84.31
2018-12-05T00:12:10.511Z,84.73
2018-12-05T00:13:10.523Z,84.73
2018-12-05T00:14:10.493Z,84.52
2018-12-05T00:15:10.497Z,84.94
2018-12-05T00:16:10.470Z,84.63
2018-12-05T00:17:10.472Z,84.63
2018-12-05T00:18:10.472Z,84.94
2018-12-05T00:19:10.473Z,84.83
2018-12-05T00:20:10.438Z,84.31
2018-12-05T00:21:10.416Z,84.87
2018-12-05T00:22:10.500Z,84.31
2018-12-05T00:23:10.410Z,84.63
2018-12-05T00:24:10.438Z,84.56
2018-12-05T00:25:10.389Z,84.73
2018-12-05T00:26:10.372Z,84.35
2018-12-05T00:27:10.361Z,84.31
2018-12-05T00:28:10.349Z,84.35
2018-12-05T00:29:10.366Z,84.63
2018-12-05T00:30:10.328Z,84.52
2018-12-05T00:31:10.345Z,84.63
2018-12-05T00:32:10.304Z,84.52
2018-12-05T00:33:10.290Z,84.94
2018-12-05T00:34:10.305Z,85.19
2018-12-05T00:35:10.278Z,84.98
2018-12-05T00:36:10.267Z,84.98
2018-12-05T00:37:10.252Z,85.08
2018-12-05T00:38:10.241Z,85.25
2018-12-05T00:39:10.247Z,84.63
2018-12-05T00:40:10.219Z,84.63
2018-12-05T00:41:10.206Z,85.25
2018-12-05T00:42:10.202Z,85.29
2018-12-05T00:43:10.191Z,85.39
2018-12-05T00:44:10.194Z,85.08
2018-12-05T00:45:10.184Z,85.35
2018-12-05T00:46:10.164Z,85.25
2018-12-05T00:47:10.146Z,85.50
2018-12-05T00:48:10.144Z,85.29
2018-12-05T00:49:10.158Z,84.87
2018-12-05T00:50:10.118Z,85.19
2018-12-05T00:51:10.110Z,84.98
2018-12-05T00:52:10.098Z,84.77
2018-12-05T00:53:10.083Z,85.14
2018-12-05T00:54:10.121Z,85.19
2018-12-05T00:55:10.076Z,85.67
2018-12-05T00:56:10.060Z,85.25
2018-12-05T00:57:10.040Z,85.25
2018-12-05T00:58:10.033Z,85.25
2018-12-05T00:59:10.024Z,84.98
2018-12-05T01:00:10.032Z,85.35
2018-12-05T01:01:09.996Z,85.08
2018-12-05T01:02:09.990Z,84.83
2018-12-05T01:03:09.978Z,85.19
2018-12-05T01:04:09.970Z,85.50
2018-12-05T01:05:09.981Z,85.60
2018-12-05T01:06:09.962Z,85.50
2018-12-05T01:07:09.937Z,85.60
2018-12-05T01:08:09.926Z,85.60
2018-12-05T01:09:09.916Z,85.50
2018-12-05T01:10:09.924Z,85.60
2018-12-05T01:11:09.906Z,85.71
2018-12-05T01:12:09.896Z,85.81
2018-12-05T01:13:09.873Z,85.81
2018-12-05T01:14:09.863Z,85.81
2018-12-05T01:15:09.880Z,85.71
2018-12-05T01:16:09.844Z,85.81
2018-12-05T01:17:09.838Z,85.71
2018-12-05T01:18:09.846Z,85.91
2018-12-05T01:19:09.812Z,86.22
2018-12-05T01:20:09.815Z,86.22
2018-12-05T01:21:09.797Z,86.33
2018-12-05T01:22:09.792Z,86.16
2018-12-05T01:23:09.770Z,85.85
2018-12-05T01:24:09.756Z,86.12
2018-12-05T01:25:09.764Z,86.02
2018-12-05T01:26:09.738Z,86.27
2018-12-05T01:27:09.739Z,86.27
2018-12-05T01:28:09.734Z,86.27
2018-12-05T01:29:09.715Z,86.27
2018-12-05T01:30:09.724Z,86.22
2018-12-05T01:31:17.636Z,86.16
2018-12-05T01:32:18.682Z,86.06
2018-12-05T01:33:09.669Z,86.37
2018-12-05T01:34:18.703Z,86.27
2018-12-05T01:35:09.670Z,86.37
2018-12-05T01:36:09.634Z,86.27
2018-12-05T01:37:09.623Z,86.27
2018-12-05T01:38:09.617Z,86.37
2018-12-05T01:39:09.609Z,86.33
2018-12-05T01:40:09.597Z,86.47
2018-12-05T01:41:09.607Z,86.47
2018-12-05T01:42:09.571Z,86.58
2018-12-05T01:43:09.564Z,86.37
2018-12-05T01:44:09.549Z,86.54
2018-12-05T01:45:09.537Z,86.58
2018-12-05T01:46:09.549Z,86.68
2018-12-05T01:47:09.559Z,86.79
2018-12-05T01:48:09.511Z,86.58
2018-12-05T01:49:09.498Z,86.75
2018-12-05T01:50:09.503Z,86.54
2018-12-05T01:51:09.503Z,86.54
2018-12-05T01:52:09.467Z,86.33
2018-12-05T01:53:09.457Z,86.12
2018-12-05T01:54:09.445Z,86.12
2018-12-05T01:55:09.435Z,85.91
2018-12-05T01:56:09.445Z,86.02
2018-12-05T01:57:09.419Z,86.33
2018-12-05T01:58:09.421Z,85.91
2018-12-05T01:59:09.392Z,85.71
2018-12-05T02:00:09.383Z,86.22
2018-12-05T02:01:09.391Z,85.77
2018-12-05T02:02:09.462Z,85.77
2018-12-05T02:03:09.357Z,85.35
2018-12-05T02:04:09.369Z,86.12
2018-12-05T02:05:09.351Z,86.12
2018-12-05T02:06:09.373Z,86.22
2018-12-05T02:07:09.311Z,86.33
2018-12-05T02:08:09.308Z,86.22
2018-12-05T02:09:09.297Z,85.71
2018-12-05T02:10:09.288Z,86.12
2018-12-05T02:11:09.298Z,85.67
2018-12-05T02:12:09.259Z,86.02
2018-12-05T02:13:09.248Z,85.91
2018-12-05T02:14:09.289Z,85.91
2018-12-05T02:15:09.231Z,86.02
2018-12-05T02:16:09.247Z,86.22
2018-12-05T02:17:09.209Z,86.22
2018-12-05T02:18:09.199Z,86.43
2018-12-05T02:19:09.193Z,86.22
2018-12-05T02:20:09.177Z,86.54
2018-12-05T02:21:16.477Z,86.54
2018-12-05T02:22:09.173Z,86.54
2018-12-05T02:23:09.147Z,86.54
2018-12-05T02:24:09.135Z,86.54
2018-12-05T02:25:17.300Z,86.22
2018-12-05T02:26:09.114Z,86.22
2018-12-05T02:27:09.119Z,86.22
2018-12-05T02:28:09.089Z,86.33
2018-12-05T02:29:09.079Z,85.88
2018-12-05T02:30:09.081Z,86.12
2018-12-05T02:31:09.058Z,86.19
2018-12-05T02:32:09.067Z,86.33
2018-12-05T02:33:09.047Z,86.54
2018-12-05T02:34:09.031Z,86.43
2018-12-05T02:35:09.027Z,86.33
2018-12-05T02:36:09.016Z,86.54
2018-12-05T02:37:09.019Z,86.75
2018-12-05T02:38:08.983Z,86.33
2018-12-05T02:39:08.986Z,86.43
2018-12-05T02:40:08.984Z,86.75
2018-12-05T02:41:08.967Z,86.65
2018-12-05T02:42:08.969Z,86.65
2018-12-05T02:43:08.945Z,86.54
2018-12-05T02:44:08.925Z,86.58
2018-12-05T02:45:08.922Z,86.89
2018-12-05T02:46:08.908Z,86.99
2018-12-05T02:47:08.914Z,87.16
2018-12-05T02:48:08.892Z,86.85
2018-12-05T02:50:10.026Z,86.89
2018-12-05T02:51:08.857Z,86.65
2018-12-05T02:52:08.899Z,86.75
2018-12-05T02:53:08.832Z,86.85
2018-12-05T02:54:08.822Z,86.33
2018-12-05T02:55:08.818Z,86.43
2018-12-05T02:56:08.804Z,86.54
2018-12-05T02:57:08.810Z,86.54
2018-12-05T02:58:08.787Z,86.75
2018-12-05T02:59:08.799Z,86.65
2018-12-05T03:00:08.764Z,86.65
2018-12-05T03:01:08.749Z,86.65
2018-12-05T03:02:08.767Z,86.54
2018-12-05T03:03:08.724Z,86.75
2018-12-05T03:04:08.711Z,86.54
2018-12-05T03:05:08.703Z,86.54
2018-12-05T03:06:08.689Z,86.65
2018-12-05T03:07:08.777Z,86.54
2018-12-05T03:08:08.689Z,86.65
2018-12-05T03:09:08.662Z,86.96
2018-12-05T03:10:08.670Z,86.85
2018-12-05T03:11:08.655Z,86.79
2018-12-05T03:12:08.637Z,86.89
2018-12-05T03:13:08.645Z,86.89
2018-12-05T03:14:08.615Z,87.10
2018-12-05T03:15:08.600Z,87.10
2018-12-05T03:16:08.634Z,87.10
2018-12-05T03:17:08.577Z,86.89
2018-12-05T03:18:08.597Z,86.89
2018-12-05T03:19:08.557Z,87.20
2018-12-05T03:20:08.548Z,86.99
2018-12-05T03:21:08.540Z,87.52
2018-12-05T03:22:08.525Z,87.20
2018-12-05T03:23:08.535Z,87.52
2018-12-05T03:24:08.500Z,87.20
2018-12-05T03:25:08.494Z,87.10
2018-12-05T03:26:08.489Z,87.30
2018-12-05T03:27:08.471Z,87.30
2018-12-05T03:28:08.475Z,87.30
2018-12-05T03:29:08.464Z,87.55
2018-12-05T03:30:08.441Z,87.83
2018-12-05T03:31:08.438Z,87.76
2018-12-05T03:32:08.436Z,88.29
2018-12-05T03:33:08.438Z,88.70
2018-12-05T03:34:08.403Z,88.60
2018-12-05T03:35:08.389Z,88.39
2018-12-05T03:36:08.385Z,88.18
2018-12-05T03:37:08.384Z,88.18
2018-12-05T03:38:08.381Z,88.24
2018-12-05T03:39:08.346Z,88.08
2018-12-05T03:40:08.349Z,87.87
2018-12-05T03:41:08.342Z,87.87
2018-12-05T03:42:08.317Z,87.87
2018-12-05T03:43:08.323Z,87.97
2018-12-05T03:44:08.303Z,87.97
2018-12-05T03:45:08.283Z,87.97
2018-12-05T03:46:08.279Z,87.97
2018-12-05T03:47:08.283Z,88.08
2018-12-05T03:48:08.287Z,88.08
2018-12-05T03:49:08.244Z,88.08
2018-12-05T03:50:08.229Z,88.08
2018-12-05T03:51:08.220Z,88.18
2018-12-05T03:52:08.209Z,88.18
2018-12-05T03:53:08.207Z,88.39
2018-12-05T03:54:08.217Z,88.49
2018-12-05T03:55:08.187Z,88.18
2018-12-05T03:56:08.167Z,88.60
2018-12-05T03:57:08.161Z,88.60
2018-12-05T03:58:08.147Z,88.70
2018-12-05T03:59:08.155Z,88.39
2018-12-05T04:00:08.133Z,88.18
2018-12-05T04:01:08.127Z,88.81
2018-12-05T04:02:08.106Z,88.64
2018-12-05T04:03:08.095Z,88.64
2018-12-05T04:04:08.117Z,88.53
2018-12-05T04:05:08.075Z,88.75
2018-12-05T04:06:08.074Z,88.60
2018-12-05T04:07:08.060Z,88.60
2018-12-05T04:08:08.116Z,88.81
2018-12-05T04:09:08.109Z,89.01
2018-12-05T04:10:08.033Z,88.81
2018-12-05T04:11:08.021Z,88.75
2018-12-05T04:12:08.004Z,88.18
2018-12-05T04:13:07.987Z,88.49
2018-12-05T04:14:08.010Z,88.22
2018-12-05T04:15:07.967Z,88.29
2018-12-05T04:16:07.961Z,88.39
2018-12-05T04:17:07.948Z,88.53
2018-12-05T04:18:07.946Z,89.01
2018-12-05T04:19:07.947Z,88.95
2018-12-05T04:20:07.930Z,88.81
2018-12-05T04:21:07.908Z,89.01
2018-12-05T04:22:07.911Z,89.16
2018-12-05T04:23:07.959Z,88.91
2018-12-05T04:24:07.906Z,89.89
2018-12-05T04:25:07.870Z,89.37
2018-12-05T04:26:07.857Z,89.58
2018-12-05T04:27:07.856Z,89.78
2018-12-05T04:28:07.832Z,89.68
2018-12-05T04:29:07.829Z,89.58
2018-12-05T04:30:07.834Z,89.58
2018-12-05T04:31:07.804Z,89.26
2018-12-05T04:32:07.788Z,89.37
2018-12-05T04:33:07.781Z,89.37
2018-12-05T04:34:07.798Z,89.37
2018-12-05T04:35:07.772Z,89.47
2018-12-05T04:36:07.762Z,89.37
2018-12-05T04:37:07.739Z,89.37
2018-12-05T04:38:07.728Z,89.47
2018-12-05T04:39:07.730Z,89.37
2018-12-05T04:40:07.724Z,89.37
2018-12-05T04:41:07.697Z,89.78
2018-12-05T04:42:07.686Z,89.89
2018-12-05T04:43:07.674Z,89.58
2018-12-05T04:44:07.683Z,89.89
2018-12-05T04:45:07.715Z,90.20
2018-12-05T04:46:07.642Z,89.78
2018-12-05T04:47:07.634Z,89.78
2018-12-05T04:48:07.623Z,89.37
2018-12-05T04:49:07.613Z,89.47
2018-12-05T04:50:07.635Z,89.47
2018-12-05T04:51:07.603Z,89.47
2018-12-05T04:52:07.580Z,89.78
2018-12-05T04:53:07.584Z,89.78
2018-12-05T04:54:16.828Z,89.78
2018-12-05T04:55:07.620Z,89.26
2018-12-05T04:56:07.569Z,89.47
2018-12-05T04:57:07.546Z,89.47
2018-12-05T04:58:07.520Z,89.58
2018-12-05T04:59:07.514Z,89.37
2018-12-05T05:00:07.525Z,89.78
2018-12-05T05:01:16.408Z,89.47
2018-12-05T05:02:07.473Z,89.83
2018-12-05T05:03:07.462Z,90.10
2018-12-05T05:04:07.460Z,90.14
2018-12-05T05:05:07.451Z,90.00
2018-12-05T05:06:07.469Z,90.14
2018-12-05T05:07:07.452Z,90.03
2018-12-05T05:08:07.412Z,90.31
2018-12-05T05:09:07.402Z,90.03
2018-12-05T05:10:07.404Z,90.35
2018-12-05T05:11:07.411Z,90.45
2018-12-05T05:12:07.370Z,90.20
2018-12-05T05:13:07.366Z,90.14
2018-12-05T05:14:07.355Z,90.14
2018-12-05T05:15:07.344Z,90.35
2018-12-05T05:16:07.348Z,90.35
2018-12-05T05:17:07.316Z,90.20
2018-12-05T05:18:07.306Z,90.52
2018-12-05T05:19:07.304Z,90.41
2018-12-05T05:20:07.302Z,90.25
2018-12-05T05:21:07.323Z,90.14
2018-12-05T05:22:07.279Z,90.35
2018-12-05T05:23:07.263Z,90.56
2018-12-05T05:24:07.248Z,90.66
2018-12-05T05:25:07.230Z,90.66
2018-12-05T05:26:07.251Z,90.56
2018-12-05T05:27:07.215Z,90.45
2018-12-05T05:28:07.213Z,90.35
2018-12-05T05:29:07.216Z,90.25
2018-12-05T05:30:07.184Z,90.45
2018-12-05T05:31:07.192Z,90.66
2018-12-05T05:32:07.164Z,90.56
2018-12-05T05:33:07.153Z,91.39
2018-12-05T05:34:07.151Z,91.39
2018-12-05T05:35:07.180Z,91.29
2018-12-05T05:36:07.187Z,91.50
2018-12-05T05:37:07.109Z,91.18
2018-12-05T05:38:07.843Z,91.29
2018-12-05T05:39:07.090Z,91.39
2018-12-05T05:40:07.073Z,91.29
2018-12-05T05:41:07.080Z,91.39
2018-12-05T05:42:07.063Z,91.39
2018-12-05T05:43:07.042Z,91.39
2018-12-05T05:44:07.032Z,91.29
2018-12-05T05:45:07.028Z,91.29
2018-12-05T05:46:07.042Z,91.18
2018-12-05T05:47:07.000Z,91.29
2018-12-05T05:48:06.995Z,91.29
2018-12-05T05:49:06.987Z,91.39
2018-12-05T05:50:06.971Z,91.39
2018-12-05T05:51:07.009Z,91.39
2018-12-05T05:52:06.948Z,91.50
2018-12-05T05:53:06.943Z,91.35
2018-12-05T05:54:06.927Z,91.39
2018-12-05T05:55:06.929Z,91.46
2018-12-05T05:56:06.909Z,90.52
2018-12-05T05:57:06.925Z,90.20
2018-12-05T05:58:06.890Z,90.20
2018-12-05T05:59:06.888Z,90.10
2018-12-05T06:00:06.866Z,90.00
2018-12-05T06:01:06.871Z,90.62
2018-12-05T06:02:06.873Z,90.41
2018-12-05T06:03:06.851Z,90.31
2018-12-05T06:04:06.835Z,90.83
2018-12-05T06:05:06.814Z,90.83
2018-12-05T06:06:06.804Z,90.93
2018-12-05T06:07:06.823Z,90.41
2018-12-05T06:08:06.805Z,90.41
2018-12-05T06:09:06.776Z,90.62
2018-12-05T06:10:06.770Z,90.31
2018-12-05T06:11:06.749Z,90.41
2018-12-05T06:12:06.823Z,89.85
2018-12-05T06:13:06.726Z,90.20
2018-12-05T06:14:06.726Z,90.06
2018-12-05T06:15:06.716Z,90.10
2018-12-05T06:16:06.706Z,90.41
2018-12-05T06:17:06.702Z,89.85
2018-12-05T06:18:06.678Z,90.26
2018-12-05T06:19:06.664Z,90.16
2018-12-05T06:20:06.664Z,90.20
2018-12-05T06:21:06.672Z,90.00
2018-12-05T06:22:06.683Z,89.95
2018-12-05T06:23:06.630Z,90.00
2018-12-05T06:24:06.617Z,90.31
2018-12-05T06:25:06.604Z,90.20
2018-12-05T06:26:06.602Z,90.20
2018-12-05T06:27:06.690Z,90.06
2018-12-05T06:28:06.572Z,90.00
2018-12-05T06:29:06.565Z,89.95
2018-12-05T06:30:06.557Z,90.20
2018-12-05T06:31:06.545Z,90.10
2018-12-05T06:32:06.558Z,90.00
2018-12-05T06:33:06.547Z,89.78
2018-12-05T06:34:06.542Z,90.31
2018-12-05T06:35:06.510Z,90.00
2018-12-05T06:36:06.501Z,90.41
2018-12-05T06:37:06.500Z,90.06
2018-12-05T06:38:06.486Z,89.64
2018-12-05T06:39:06.456Z,89.95
2018-12-05T06:40:06.453Z,89.58
2018-12-05T06:41:06.435Z,89.64
2018-12-05T06:42:06.426Z,89.22
2018-12-05T06:43:06.448Z,89.75
2018-12-05T06:44:06.418Z,89.78
2018-12-05T06:45:06.400Z,89.58
2018-12-05T06:46:06.444Z,90.00
2018-12-05T06:47:06.374Z,90.00
2018-12-05T06:48:06.394Z,90.31
2018-12-05T06:49:06.368Z,90.10
2018-12-05T06:50:06.352Z,90.31
2018-12-05T06:51:06.331Z,90.31
2018-12-05T06:52:06.322Z,89.78
2018-12-05T06:53:06.337Z,90.10
2018-12-05T06:54:06.298Z,90.41
2018-12-05T06:55:06.298Z,90.00
2018-12-05T06:56:06.358Z,90.16
2018-12-05T06:57:06.281Z,90.16
2018-12-05T06:58:06.271Z,90.10
2018-12-05T06:59:06.252Z,90.20
2018-12-05T07:00:06.245Z,90.10
2018-12-05T07:01:06.422Z,90.10
2018-12-05T07:02:06.212Z,90.00
2018-12-05T07:03:06.253Z,90.10
2018-12-05T07:04:06.201Z,89.89
2018-12-05T07:05:06.191Z,90.10
2018-12-05T07:06:06.191Z,90.10
2018-12-05T07:07:06.175Z,90.31
2018-12-05T07:08:06.188Z,90.20
2018-12-05T07:09:06.147Z,90.10
2018-12-05T07:10:06.140Z,90.00
2018-12-05T07:11:06.132Z,90.10
2018-12-05T07:12:06.135Z,90.10
2018-12-05T07:13:06.121Z,90.00
2018-12-05T07:14:06.097Z,90.00
2018-12-05T07:15:06.083Z,90.10
2018-12-05T07:16:06.074Z,89.89
2018-12-05T07:17:06.059Z,90.00
2018-12-05T07:18:06.117Z,89.89
2018-12-05T07:19:06.046Z,90.00
2018-12-05T07:20:06.033Z,90.35
2018-12-05T07:21:06.019Z,90.10
2018-12-05T07:22:06.015Z,90.00
2018-12-05T07:23:06.007Z,90.35
2018-12-05T07:24:06.023Z,90.35
2018-12-05T07:25:05.988Z,90.14
2018-12-05T07:26:05.964Z,90.14
2018-12-05T07:27:05.970Z,90.66
2018-12-05T07:28:05.959Z,90.52
2018-12-05T07:29:05.970Z,90.56
2018-12-05T07:30:05.933Z,90.72
2018-12-05T07:31:05.927Z,90.66
2018-12-05T07:32:05.908Z,90.66
2018-12-05T07:33:05.903Z,90.66
2018-12-05T07:34:05.906Z,90.62
2018-12-05T07:35:05.884Z,90.41
2018-12-05T07:36:05.869Z,90.45
2018-12-05T07:37:05.867Z,90.20
2018-12-05T07:38:05.845Z,90.00
2018-12-05T07:39:05.859Z,89.78
2018-12-05T07:40:05.906Z,89.89
2018-12-05T07:41:05.837Z,90.20
2018-12-05T07:42:05.830Z,89.89
2018-12-05T07:43:05.793Z,90.00
2018-12-05T07:44:05.824Z,90.00
2018-12-05T07:45:05.792Z,89.78
2018-12-05T07:46:05.766Z,89.47
2018-12-05T07:47:05.755Z,89.58
2018-12-05T07:48:05.740Z,89.47
2018-12-05T07:49:05.751Z,89.22
2018-12-05T07:50:05.717Z,89.58
2018-12-05T07:51:05.707Z,89.64
2018-12-05T07:52:05.699Z,89.47
2018-12-05T07:53:05.683Z,89.37
2018-12-05T07:54:05.815Z,89.22
2018-12-05T07:55:05.668Z,89.43
2018-12-05T07:56:05.655Z,89.68
2018-12-05T07:57:05.642Z,89.32
2018-12-05T07:58:05.638Z,89.22
2018-12-05T07:59:05.662Z,89.43
2018-12-05T08:00:05.624Z,89.32
2018-12-05T08:01:05.606Z,89.43
2018-12-05T08:02:05.601Z,89.12
2018-12-05T08:03:05.586Z,89.01
2018-12-05T08:04:05.604Z,88.35
2018-12-05T08:05:05.591Z,88.56
2018-12-05T08:06:05.563Z,88.14
2018-12-05T08:07:05.533Z,87.93
2018-12-05T08:08:05.526Z,88.39
2018-12-05T08:09:05.532Z,88.35
2018-12-05T08:10:05.536Z,88.76
2018-12-05T08:11:05.523Z,88.66
2018-12-05T08:12:05.483Z,88.76
2018-12-05T08:13:05.476Z,88.87
2018-12-05T08:14:06.629Z,88.45
2018-12-05T08:15:05.475Z,88.56
2018-12-05T08:16:05.444Z,88.45
2018-12-05T08:17:05.434Z,88.87
2018-12-05T08:18:05.425Z,88.45
2018-12-05T08:19:05.431Z,88.56
2018-12-05T08:20:05.417Z,88.45
2018-12-05T08:21:05.397Z,88.66
2018-12-05T08:22:05.380Z,88.14
2018-12-05T08:23:05.384Z,88.04
2018-12-05T08:24:05.369Z,87.93
2018-12-05T08:25:05.435Z,87.93
2018-12-05T08:26:05.336Z,87.89
2018-12-05T08:27:05.333Z,88.31
2018-12-05T08:28:05.803Z,88.10
2018-12-05T08:29:05.395Z,88.52
2018-12-05T08:30:05.319Z,87.58
2018-12-05T08:31:05.284Z,87.27
2018-12-05T08:32:05.521Z,87.37
2018-12-05T08:33:05.263Z,87.16
2018-12-05T08:34:05.259Z,87.58
2018-12-05T08:35:05.283Z,87.16
2018-12-05T08:36:05.245Z,87.37
2018-12-05T08:37:05.225Z,87.33
2018-12-05T08:38:05.224Z,87.16
2018-12-05T08:39:05.199Z,87.37
2018-12-05T08:40:05.218Z,87.27
2018-12-05T08:41:05.196Z,86.85
2018-12-05T08:42:05.170Z,86.96
2018-12-05T08:43:05.161Z,87.12
2018-12-05T08:44:05.163Z,86.81
2018-12-05T08:45:05.171Z,86.91
2018-12-05T08:46:05.141Z,86.91
2018-12-05T08:47:05.117Z,86.60
2018-12-05T08:48:05.118Z,86.57
2018-12-05T08:49:05.102Z,86.60
2018-12-05T08:50:05.104Z,86.67
2018-12-05T08:51:05.075Z,86.46
2018-12-05T08:52:05.092Z,86.25
2018-12-05T08:53:05.052Z,86.15
2018-12-05T08:54:05.056Z,86.11
2018-12-05T08:55:05.087Z,85.94
2018-12-05T08:56:05.061Z,86.15
2018-12-05T08:57:05.034Z,85.69
2018-12-05T08:58:05.038Z,85.49
2018-12-05T08:59:04.997Z,85.17
2018-12-05T09:00:05.005Z,85.17
2018-12-05T09:01:04.973Z,84.86
2018-12-05T09:02:04.974Z,84.55
2018-12-05T09:03:04.955Z,85.03
2018-12-05T09:04:04.957Z,84.61
2018-12-05T09:05:04.952Z,85.03
2018-12-05T09:06:04.915Z,84.41
2018-12-05T09:07:04.911Z,84.51
2018-12-05T09:08:04.897Z,84.05
2018-12-05T09:09:04.919Z,83.89
2018-12-05T09:10:04.927Z,83.99
2018-12-05T09:11:04.902Z,83.74
2018-12-05T09:12:04.873Z,83.53
2018-12-05T09:13:04.892Z,83.53
2018-12-05T09:14:04.926Z,83.33
2018-12-05T09:15:04.842Z,83.12
2018-12-05T09:16:04.829Z,83.22
2018-12-05T09:17:04.805Z,83.22
2018-12-05T09:18:04.793Z,83.22
2018-12-05T09:19:04.785Z,83.12
2018-12-05T09:20:04.805Z,83.39
2018-12-05T09:21:04.775Z,83.29
2018-12-05T09:22:04.753Z,82.87
2018-12-05T09:23:04.821Z,82.87
2018-12-05T09:24:04.730Z,83.08
2018-12-05T09:25:04.745Z,83.18
2018-12-05T09:26:04.736Z,83.08
2018-12-05T09:27:04.704Z,83.08
2018-12-05T09:28:04.725Z,82.42
2018-12-05T09:29:04.689Z,81.90
2018-12-05T09:30:04.686Z,81.90
2018-12-05T09:31:04.667Z,81.80
2018-12-05T09:32:04.649Z,82.01
2018-12-05T09:33:04.642Z,81.49
2018-12-05T09:34:04.625Z,81.28
2018-12-05T09:35:04.655Z,81.56
2018-12-05T09:36:04.603Z,81.76
2018-12-05T09:37:04.593Z,81.35
2018-12-05T09:38:04.581Z,81.24
2018-12-05T09:39:04.586Z,80.41
2018-12-05T09:40:04.561Z,80.37
2018-12-05T09:41:04.575Z,80.27
2018-12-05T09:42:04.539Z,80.37
2018-12-05T09:43:04.528Z,80.89
2018-12-05T09:44:04.521Z,80.99
2018-12-05T09:45:04.530Z,80.68
2018-12-05T09:46:04.545Z,80.52
2018-12-05T09:47:04.490Z,80.93
2018-12-05T09:48:04.481Z,80.68
2018-12-05T09:49:04.466Z,80.79
2018-12-05T09:50:04.466Z,80.68
2018-12-05T09:51:04.465Z,80.89
2018-12-05T09:52:04.441Z,80.37
2018-12-05T09:53:04.425Z,79.96
2018-12-05T09:54:04.437Z,80.16
2018-12-05T09:55:04.407Z,80.47
2018-12-05T09:56:04.419Z,79.65
2018-12-05T09:57:04.387Z,79.75
2018-12-05T09:58:04.384Z,79.75
2018-12-05T09:59:04.354Z,80.06
2018-12-05T10:00:04.359Z,80.06
2018-12-05T10:01:04.366Z,79.41
2018-12-05T10:02:04.339Z,79.20
2018-12-05T10:03:04.317Z,79.06
2018-12-05T10:04:04.323Z,78.54
2018-12-05T10:05:04.294Z,78.12
2018-12-05T10:06:04.316Z,78.54
2018-12-05T10:07:04.280Z,78.02
2018-12-05T10:08:04.276Z,78.44
2018-12-05T10:09:04.257Z,77.81
2018-12-05T10:10:04.247Z,77.81
2018-12-05T10:11:04.269Z,77.81
2018-12-05T10:12:04.230Z,77.81
2018-12-05T10:13:04.215Z,77.71
2018-12-05T10:14:04.204Z,77.81
2018-12-05T10:15:04.194Z,77.61
2018-12-05T10:16:04.211Z,77.88
2018-12-05T10:17:04.170Z,77.67
2018-12-05T10:18:04.159Z,77.15
2018-12-05T10:19:04.149Z,76.95
2018-12-05T10:20:04.153Z,77.05
2018-12-05T10:21:04.145Z,76.95
2018-12-05T10:22:04.117Z,76.84
2018-12-05T10:23:04.112Z,76.74
2018-12-05T10:24:04.124Z,76.64
2018-12-05T10:25:04.149Z,76.50
2018-12-05T10:26:04.111Z,76.02
2018-12-05T10:27:04.071Z,76.29
2018-12-05T10:28:04.061Z,76.19
2018-12-05T10:29:04.073Z,76.09
2018-12-05T10:30:04.035Z,76.09
2018-12-05T10:31:04.029Z,75.78
2018-12-05T10:32:05.086Z,76.09
2018-12-05T10:33:04.007Z,76.19
2018-12-05T10:34:03.991Z,75.88
2018-12-05T10:35:04.009Z,75.67
2018-12-05T10:36:03.973Z,75.46
2018-12-05T10:37:03.979Z,75.43
2018-12-05T10:38:03.955Z,75.32
2018-12-05T10:39:03.950Z,75.22
2018-12-05T10:40:03.924Z,75.74
2018-12-05T10:41:03.933Z,75.32
2018-12-05T10:42:03.927Z,75.53
2018-12-05T10:43:03.913Z,75.12
2018-12-05T10:44:03.893Z,75.02
2018-12-05T10:45:03.873Z,74.91
2018-12-05T10:46:03.860Z,74.91
2018-12-05T10:47:03.874Z,74.40
2018-12-05T10:48:03.843Z,74.60
2018-12-05T10:49:03.828Z,74.40
2018-12-05T10:50:03.824Z,74.29
2018-12-05T10:51:03.811Z,74.29
2018-12-05T10:52:03.826Z,74.05
2018-12-05T10:53:03.785Z,73.74
2018-12-05T10:54:03.789Z,74.08
2018-12-05T10:55:03.768Z,74.05
2018-12-05T10:56:03.760Z,73.81
2018-12-05T10:57:03.780Z,73.33
2018-12-05T10:58:03.738Z,72.91
2018-12-05T10:59:03.722Z,73.74
2018-12-05T11:00:03.724Z,73.19
2018-12-05T11:01:03.702Z,73.29
2018-12-05T11:02:03.703Z,72.67
2018-12-05T11:03:03.683Z,72.22
2018-12-05T11:04:03.671Z,72.36
2018-12-05T11:05:03.669Z,72.22
2018-12-05T11:06:03.664Z,71.88
2018-12-05T11:07:03.655Z,69.75
2018-12-05T11:08:03.631Z,67.15
2018-12-05T11:09:03.698Z,64.83
2018-12-05T11:10:03.608Z,62.75
2018-12-05T11:11:03.600Z,59.62
2018-12-05T11:12:03.603Z,58.44
2018-12-05T11:13:03.572Z,57.48
2018-12-05T11:14:03.570Z,56.43
2018-12-05T11:15:03.600Z,55.49
2018-12-05T11:16:03.546Z,55.18
2018-12-05T11:17:03.548Z,55.28
2018-12-05T11:18:03.515Z,54.31
2018-12-05T11:19:03.510Z,53.23
2018-12-05T11:20:03.510Z,51.57
2018-12-05T11:21:03.484Z,51.81
2018-12-05T11:22:03.490Z,52.55
2018-12-05T11:23:03.487Z,52.22
2018-12-05T11:24:03.469Z,51.89
2018-12-05T11:25:03.456Z,51.37
2018-12-05T11:26:03.432Z,50.48
2018-12-05T11:27:03.429Z,48.50
2018-12-05T11:28:03.434Z,47.85
2018-12-05T11:29:03.398Z,46.66
2018-12-05T11:30:03.386Z,44.71
2018-12-05T11:31:03.376Z,44.60
2018-12-05T11:32:03.374Z,44.06
2018-12-05T11:33:03.372Z,43.55
2018-12-05T11:34:03.355Z,43.35
2018-12-05T11:35:03.339Z,43.77
2018-12-05T11:36:03.324Z,43.51
2018-12-05T11:37:03.312Z,44.87
2018-12-05T11:38:03.326Z,44.87
2018-12-05T11:39:03.294Z,43.71
2018-12-05T11:40:03.290Z,43.63
2018-12-05T11:41:03.270Z,43.59
2018-12-05T11:42:03.267Z,42.51
2018-12-05T11:43:03.269Z,41.60
2018-12-05T11:44:03.241Z,41.68
2018-12-05T11:45:03.239Z,40.12
2018-12-05T11:46:03.222Z,40.00
2018-12-05T11:47:03.211Z,39.90
2018-12-05T11:48:03.244Z,40.00
2018-12-05T11:49:03.187Z,38.68
2018-12-05T11:50:03.193Z,38.40
2018-12-05T11:51:03.170Z,38.28
2018-12-05T11:52:03.165Z,37.69
2018-12-05T11:53:03.173Z,38.67
2018-12-05T11:54:03.136Z,37.54
2018-12-05T11:55:03.127Z,37.13
2018-12-05T11:56:03.152Z,36.63
2018-12-05T11:57:03.105Z,36.94
2018-12-05T11:58:03.107Z,36.93
2018-12-05T11:59:03.084Z,36.02
2018-12-05T12:00:03.068Z,35.92
2018-12-05T12:01:03.064Z,36.24
2018-12-05T12:02:03.047Z,37.57
2018-12-05T12:03:03.049Z,37.69
2018-12-05T12:04:03.031Z,37.57
2018-12-05T12:05:03.013Z,37.89
2018-12-05T12:06:03.013Z,38.03
2018-12-05T12:07:03.001Z,37.91
2018-12-05T12:08:03.016Z,38.21
2018-12-05T12:09:02.981Z,37.69
2018-12-05T12:10:02.958Z,37.38
2018-12-05T12:11:02.945Z,37.99
2018-12-05T12:12:02.935Z,38.40
2018-12-05T12:13:02.927Z,38.35
2018-12-05T12:14:02.975Z,40.14
2018-12-05T12:15:02.915Z,41.80
2018-12-05T12:16:02.901Z,43.24
2018-12-05T12:17:02.885Z,43.26
2018-12-05T12:18:02.884Z,43.26
2018-12-05T12:19:02.886Z,43.38
2018-12-05T12:20:02.853Z,43.18
2018-12-05T12:21:02.839Z,43.08
2018-12-05T12:22:02.833Z,43.61
2018-12-05T12:23:02.821Z,43.51
2018-12-05T12:24:02.835Z,43.84
2018-12-05T12:25:02.800Z,44.87
2018-12-05T12:26:02.793Z,44.43
2018-12-05T12:27:02.777Z,42.98
2018-12-05T12:28:02.767Z,43.20
2018-12-05T12:29:02.769Z,42.90
2018-12-05T12:30:02.756Z,44.18
2018-12-05T12:31:02.739Z,45.65
2018-12-05T12:32:02.732Z,46.00
2018-12-05T12:33:02.970Z,46.90
2018-12-05T12:34:02.718Z,45.98
2018-12-05T12:35:02.706Z,45.47
2018-12-05T12:36:02.683Z,46.47
2018-12-05T12:37:02.687Z,46.26
2018-12-05T12:38:02.657Z,46.19
2018-12-05T12:39:02.674Z,46.39
2018-12-05T12:40:02.647Z,47.56
2018-12-05T12:41:02.625Z,47.76
2018-12-05T12:42:02.615Z,46.23
2018-12-05T12:43:02.609Z,47.25
2018-12-05T12:44:02.610Z,47.78
2018-12-05T12:45:02.591Z,49.29
2018-12-05T12:46:02.571Z,50.97
2018-12-05T12:47:02.563Z,52.76
2018-12-05T12:48:02.573Z,53.87
2018-12-05T12:49:02.562Z,55.23
2018-12-05T12:50:02.527Z,56.08
2018-12-05T12:51:02.531Z,56.08
2018-12-05T12:52:02.507Z,56.70
2018-12-05T12:53:02.498Z,56.82